Time;durP1;ratioP1;P1;durP2;ratioP2;P2;SDS_P1;SDS_P2;PMS_P1;PMS_P2;Temp;Humidity;BMP_temperature;BMP_pressure;BME280_temperature;BME280_humidity;BME280_pressure;Samples;Min_cycle;Max_cycle;Signal;HPM_P1;HPM_P2
2023/06/28 00:00:30;;;;;;;9.05;2.40;;;17.30;60.20;;;;;;6197049;23;20328;-88
2023/06/28 00:03:18;;;;;;;5.45;1.80;;;17.30;60.70;;;;;;6195406;23;20095;-87
2023/06/28 00:06:05;;;;;;;6.78;2.15;;;17.30;60.50;;;;;;6196059;23;20029;-88
2023/06/28 00:08:52;;;;;;;7.03;2.33;;;17.30;60.20;;;;;;6195148;23;20467;-89
2023/06/28 00:11:42;;;;;;;3.53;1.67;;;17.20;60.40;;;;;;6195523;23;20039;-89
2023/06/28 00:14:29;;;;;;;7.30;2.33;;;17.20;61.10;;;;;;6195212;23;20033;-90
2023/06/28 00:17:17;;;;;;;8.10;2.28;;;17.20;61.50;;;;;;6195212;23;20020;-89
2023/06/28 00:20:08;;;;;;;8.50;2.25;;;17.20;60.70;;;;;;6222049;23;20099;-89
2023/06/28 00:22:55;;;;;;;4.35;2.05;;;17.20;60.80;;;;;;6227121;23;20445;-89
2023/06/28 00:25:43;;;;;;;4.68;2.00;;;17.20;60.80;;;;;;6228521;23;20039;-89
2023/06/28 00:28:40;;;;;;;4.97;2.03;;;17.20;60.90;;;;;;6227763;23;20035;-89
2023/06/28 00:31:28;;;;;;;9.40;1.80;;;17.20;60.50;;;;;;6249171;23;20024;-90
2023/06/28 00:34:16;;;;;;;5.10;1.83;;;17.20;61.00;;;;;;6227459;23;20032;-89
2023/06/28 00:37:04;;;;;;;4.75;2.05;;;17.20;60.40;;;;;;6224881;23;20028;-89
2023/06/28 00:39:51;;;;;;;6.90;2.35;;;17.20;60.70;;;;;;6207875;23;20028;-86
2023/06/28 00:42:44;;;;;;;4.25;1.95;;;17.10;61.40;;;;;;6225649;23;20024;-88
2023/06/28 00:45:34;;;;;;;4.53;2.10;;;17.10;60.90;;;;;;6227332;23;20031;-87
2023/06/28 00:48:24;;;;;;;6.93;2.00;;;17.10;61.20;;;;;;6226769;23;20024;-88
2023/06/28 00:51:11;;;;;;;7.45;2.28;;;17.10;61.80;;;;;;6224825;23;20031;-90
2023/06/28 00:53:59;;;;;;;4.18;1.80;;;17.10;61.80;;;;;;6225339;23;20020;-89
2023/06/28 00:56:49;;;;;;;4.30;1.88;;;17.10;61.30;;;;;;6227853;23;20020;-90
2023/06/28 00:59:37;;;;;;;7.65;2.05;;;17.00;61.40;;;;;;6225922;23;20345;-89
2023/06/28 01:02:25;;;;;;;4.10;2.10;;;17.00;62.10;;;;;;6225536;23;20075;-89
2023/06/28 01:05:15;;;;;;;7.47;2.03;;;16.90;63.70;;;;;;6228392;23;20020;-90
2023/06/28 01:08:04;;;;;;;3.70;1.83;;;16.90;63.30;;;;;;6227460;23;20024;-89
2023/06/28 01:10:52;;;;;;;5.95;2.00;;;16.90;63.40;;;;;;6226724;23;20106;-90
2023/06/28 01:13:40;;;;;;;7.05;1.90;;;16.80;64.00;;;;;;6226985;23;20020;-88
2023/06/28 01:16:28;;;;;;;4.10;2.05;;;16.80;64.60;;;;;;6227393;23;20289;-90
2023/06/28 01:19:18;;;;;;;8.27;2.33;;;16.80;64.90;;;;;;6231809;22;20031;-89
2023/06/28 01:22:09;;;;;;;6.93;1.77;;;16.70;64.60;;;;;;6202718;23;20035;-90
2023/06/28 01:24:57;;;;;;;4.93;2.13;;;16.70;65.40;;;;;;6207754;23;20379;-89
2023/06/28 01:27:46;;;;;;;7.28;2.35;;;16.70;65.60;;;;;;6228488;23;20340;-89
2023/06/28 01:30:37;;;;;;;3.83;1.75;;;16.70;65.70;;;;;;6237285;23;20038;-87
2023/06/28 01:33:24;;;;;;;5.70;2.05;;;16.70;66.30;;;;;;6215194;23;20082;-88
2023/06/28 01:36:11;;;;;;;5.50;1.90;;;16.60;66.40;;;;;;6202416;23;20028;-88
2023/06/28 01:38:59;;;;;;;5.10;2.00;;;16.60;65.30;;;;;;6202862;23;20025;-88
2023/06/28 01:41:47;;;;;;;6.20;2.13;;;16.60;66.20;;;;;;6203848;23;20024;-89
2023/06/28 01:44:35;;;;;;;3.28;1.90;;;16.70;66.30;;;;;;6209393;23;20024;-89
2023/06/28 01:47:23;;;;;;;7.25;2.20;;;16.70;66.00;;;;;;6232952;23;20024;-89
2023/06/28 01:50:11;;;;;;;8.35;2.28;;;16.70;66.00;;;;;;6190513;23;20017;-90
2023/06/28 01:53:02;;;;;;;4.70;1.85;;;16.60;66.50;;;;;;6200906;23;20024;-90
2023/06/28 01:55:49;;;;;;;8.00;3.00;;;16.60;66.60;;;;;;6194716;23;20039;-91
2023/06/28 01:58:37;;;;;;;8.57;2.58;;;16.60;66.70;;;;;;6217006;23;20031;-92
2023/06/28 02:01:25;;;;;;;7.13;2.42;;;16.50;68.00;;;;;;6204586;23;20076;-92
2023/06/28 02:04:12;;;;;;;9.50;2.30;;;16.50;71.30;;;;;;6202865;23;20029;-88
2023/06/28 02:07:00;;;;;;;8.48;2.33;;;16.30;74.70;;;;;;6228426;23;20036;-89
2023/06/28 02:09:47;;;;;;;5.95;2.40;;;16.10;77.90;;;;;;6203376;23;20021;-88
2023/06/28 02:12:34;;;;;;;5.53;2.38;;;15.90;82.00;;;;;;6194281;23;20056;-88
2023/06/28 02:15:22;;;;;;;11.23;2.60;;;15.80;84.20;;;;;;6215984;23;20073;-90
2023/06/28 02:18:10;;;;;;;8.32;2.63;;;15.70;86.10;;;;;;6195726;23;20032;-89
2023/06/28 02:20:58;;;;;;;9.73;2.50;;;15.60;87.20;;;;;;6214504;23;20340;-86
2023/06/28 02:23:45;;;;;;;8.23;2.80;;;15.50;88.70;;;;;;6194093;23;20325;-90
2023/06/28 02:26:34;;;;;;;4.47;2.17;;;15.40;88.20;;;;;;6193462;23;20025;-90
2023/06/28 02:29:21;;;;;;;6.38;2.40;;;15.40;89.40;;;;;;6192705;23;20021;-89
2023/06/28 02:32:09;;;;;;;10.20;2.65;;;15.40;89.70;;;;;;6214181;23;20020;-90
2023/06/28 02:34:59;;;;;;;5.72;2.92;;;15.40;89.50;;;;;;6214553;23;20036;-90
2023/06/28 02:37:47;;;;;;;9.50;2.50;;;15.50;86.50;;;;;;6174962;23;20025;-90
2023/06/28 02:40:35;;;;;;;6.43;2.17;;;15.50;86.40;;;;;;6218607;23;20455;-88
2023/06/28 02:43:23;;;;;;;7.88;2.25;;;15.60;87.20;;;;;;6193854;23;20040;-90
2023/06/28 02:46:12;;;;;;;5.82;2.38;;;15.60;87.00;;;;;;6195837;23;20435;-89
2023/06/28 02:49:02;;;;;;;11.88;2.53;;;15.60;86.70;;;;;;6214561;23;20021;-87
2023/06/28 02:51:50;;;;;;;10.48;2.10;;;15.60;87.70;;;;;;6193377;23;20027;-89
2023/06/28 02:54:37;;;;;;;6.43;2.17;;;15.60;88.00;;;;;;6193291;23;20037;-90
2023/06/28 02:57:24;;;;;;;8.82;2.63;;;15.60;89.00;;;;;;6195650;23;20025;-89
2023/06/28 03:00:20;;;;;;;6.70;2.20;;;15.50;89.10;;;;;;6218586;23;20048;-90
2023/06/28 03:03:09;;;;;;;5.32;2.05;;;15.50;89.50;;;;;;6215416;23;20028;-91
2023/06/28 03:05:59;;;;;;;6.10;2.90;;;15.60;88.30;;;;;;6213368;23;20035;-90
2023/06/28 03:08:49;;;;;;;3.42;1.90;;;15.60;88.00;;;;;;6217157;23;20028;-90
2023/06/28 03:11:37;;;;;;;8.95;2.65;;;15.60;87.20;;;;;;6217439;23;20017;-90
2023/06/28 03:14:24;;;;;;;8.52;2.55;;;15.60;86.60;;;;;;6195995;23;20037;-90
2023/06/28 03:17:11;;;;;;;7.97;2.47;;;15.70;86.20;;;;;;6195262;23;20036;-88
2023/06/28 03:20:00;;;;;;;6.85;2.55;;;15.70;86.50;;;;;;6210491;23;20033;-89
2023/06/28 03:22:47;;;;;;;6.45;3.10;;;15.70;87.00;;;;;;6219741;22;20029;-90
2023/06/28 03:25:34;;;;;;;6.10;2.67;;;15.60;87.70;;;;;;6219211;23;20039;-91
2023/06/28 03:28:21;;;;;;;7.15;2.50;;;15.60;89.00;;;;;;6218891;23;20495;-88
2023/06/28 03:31:09;;;;;;;9.60;2.83;;;15.50;90.10;;;;;;6218242;23;20024;-88
2023/06/28 03:33:56;;;;;;;5.72;2.60;;;15.50;90.40;;;;;;6216255;23;20036;-88
2023/06/28 03:36:43;;;;;;;9.40;3.25;;;15.50;91.20;;;;;;6217386;23;20035;-88
2023/06/28 03:39:50;;;;;;;7.85;2.90;;;15.50;93.00;;;;;;6237220;23;20028;-89
2023/06/28 03:42:37;;;;;;;4.28;1.90;;;15.40;93.60;;;;;;6218368;23;20059;-89
2023/06/28 03:45:25;;;;;;;5.63;2.28;;;15.40;94.30;;;;;;6218814;23;20029;-89
2023/06/28 03:48:12;;;;;;;6.97;2.85;;;15.30;94.60;;;;;;6235781;23;20040;-90
2023/06/28 03:51:02;;;;;;;7.85;3.08;;;15.30;94.90;;;;;;6215818;23;20021;-89
2023/06/28 03:53:51;;;;;;;5.90;3.05;;;15.30;94.90;;;;;;6218075;23;20319;-89
2023/06/28 03:56:41;;;;;;;7.82;2.50;;;15.30;95.10;;;;;;6215387;23;20024;-88
2023/06/28 03:59:28;;;;;;;7.28;2.90;;;15.20;95.10;;;;;;6218297;23;20025;-89
2023/06/28 04:02:15;;;;;;;7.63;3.00;;;15.20;95.50;;;;;;6217686;23;20033;-91
2023/06/28 04:05:03;;;;;;;11.80;3.05;;;15.20;95.80;;;;;;6218177;23;20105;-89
2023/06/28 04:07:57;;;;;;;5.97;2.75;;;15.20;95.80;;;;;;6216703;23;20108;-91
2023/06/28 04:10:47;;;;;;;5.65;2.65;;;15.10;96.70;;;;;;6077282;23;20026;-89
2023/06/28 04:13:35;;;;;;;8.10;3.03;;;15.10;96.80;;;;;;6078110;23;20019;-90
2023/06/28 04:16:24;;;;;;;5.45;2.53;;;15.00;97.10;;;;;;6077537;23;20026;-91
2023/06/28 04:19:12;;;;;;;10.02;3.20;;;15.00;97.80;;;;;;6077850;23;20149;-89
2023/06/28 04:22:03;;;;;;;7.22;3.30;;;14.90;97.10;;;;;;6077936;23;20077;-89
2023/06/28 04:24:51;;;;;;;8.65;2.78;;;14.90;96.80;;;;;;6078151;23;20054;-89
2023/06/28 04:27:40;;;;;;;9.23;3.10;;;14.90;96.80;;;;;;6089483;23;20044;-90
2023/06/28 04:30:28;;;;;;;4.55;2.92;;;15.10;96.70;;;;;;6219380;22;20359;-89
2023/06/28 04:33:22;;;;;;;5.35;2.38;;;15.10;97.10;;;;;;6218326;23;20433;-90
2023/06/28 04:36:09;;;;;;;8.68;2.70;;;15.20;97.10;;;;;;6229031;22;20021;-88
2023/06/28 04:38:57;;;;;;;6.45;2.72;;;15.30;96.80;;;;;;6230127;23;20032;-90
2023/06/28 04:41:47;;;;;;;7.55;3.15;;;15.40;96.10;;;;;;6225847;23;20056;-86
2023/06/28 04:44:41;;;;;;;5.63;3.08;;;15.50;96.20;;;;;;6221198;23;20400;-87
2023/06/28 04:47:31;;;;;;;9.15;2.80;;;15.60;95.20;;;;;;6239143;23;20030;-87
2023/06/28 04:50:21;;;;;;;6.78;3.28;;;15.70;94.60;;;;;;6217910;23;20025;-87
2023/06/28 04:53:12;;;;;;;8.52;3.47;;;15.80;94.20;;;;;;6238535;23;20025;-87
2023/06/28 04:56:00;;;;;;;13.82;3.20;;;16.00;94.40;;;;;;6217981;23;20084;-89
2023/06/28 04:58:48;;;;;;;6.85;2.88;;;16.10;93.40;;;;;;6215380;23;20024;-89
2023/06/28 05:01:37;;;;;;;8.52;2.80;;;16.30;92.00;;;;;;6238593;23;20028;-87
2023/06/28 05:04:24;;;;;;;5.70;2.60;;;16.30;91.20;;;;;;6217236;23;20056;-87
2023/06/28 05:07:12;;;;;;;4.60;2.67;;;16.30;91.20;;;;;;6216377;23;20389;-87
2023/06/28 05:10:00;;;;;;;5.25;2.33;;;16.30;90.70;;;;;;6237016;23;20328;-86
2023/06/28 05:12:51;;;;;;;11.32;3.22;;;16.30;90.00;;;;;;6215645;23;20035;-88
2023/06/28 05:15:40;;;;;;;14.80;3.30;;;16.40;90.70;;;;;;6219616;23;20031;-86
2023/06/28 05:18:30;;;;;;;11.35;2.90;;;16.50;90.50;;;;;;6243984;23;20039;-89
2023/06/28 05:21:18;;;;;;;6.90;2.97;;;16.60;90.00;;;;;;6195667;23;20424;-89
2023/06/28 05:24:08;;;;;;;5.95;2.53;;;16.80;90.30;;;;;;6216419;23;20043;-87
2023/06/28 05:26:55;;;;;;;3.28;2.45;;;16.90;87.50;;;;;;6197407;23;20043;-88
2023/06/28 05:29:42;;;;;;;4.38;2.53;;;17.00;86.10;;;;;;6194911;23;20020;-89
2023/06/28 05:32:34;;;;;;;9.93;2.58;;;17.00;88.10;;;;;;6194571;23;20020;-88
2023/06/28 05:35:24;;;;;;;10.57;2.85;;;17.10;84.80;;;;;;6195751;23;20032;-89
2023/06/28 05:38:19;;;;;;;4.90;2.35;;;17.20;86.00;;;;;;6199559;23;20020;-90
2023/06/28 05:41:17;;;;;;;9.20;2.25;;;17.50;85.70;;;;;;6200696;23;20408;-89
2023/06/28 05:44:06;;;;;;;5.05;2.15;;;17.60;82.70;;;;;;6201323;23;20071;-89
2023/06/28 05:46:53;;;;;;;10.13;2.20;;;17.90;83.00;;;;;;6198643;23;20034;-89
2023/06/28 05:49:42;;;;;;;6.65;2.33;;;18.10;80.40;;;;;;6195567;23;20029;-90
2023/06/28 05:52:30;;;;;;;7.13;1.90;;;18.30;78.20;;;;;;6195136;23;20024;-87
2023/06/28 05:55:21;;;;;;;7.53;2.58;;;18.50;77.10;;;;;;6196244;23;20113;-88
2023/06/28 05:58:08;;;;;;;5.13;2.40;;;18.80;75.40;;;;;;6195453;23;20312;-88
2023/06/28 06:00:56;;;;;;;6.15;2.10;;;19.00;73.60;;;;;;6194634;23;20039;-87
2023/06/28 06:03:43;;;;;;;5.57;2.20;;;19.30;71.10;;;;;;6194829;23;20036;-88
2023/06/28 06:06:31;;;;;;;7.10;2.50;;;19.30;75.90;;;;;;6194699;23;20084;-87
2023/06/28 06:09:18;;;;;;;4.97;2.00;;;19.60;73.70;;;;;;6193525;23;20032;-87
2023/06/28 06:12:05;;;;;;;8.30;2.38;;;19.80;70.20;;;;;;6193249;23;20343;-87
2023/06/28 06:14:56;;;;;;;4.97;2.03;;;19.60;65.40;;;;;;6192535;23;20032;-87
2023/06/28 06:17:46;;;;;;;6.35;2.20;;;19.20;69.90;;;;;;6193331;23;20021;-86
2023/06/28 06:20:36;;;;;;;5.30;2.22;;;19.20;69.90;;;;;;6222378;23;20420;-90
2023/06/28 06:23:30;;;;;;;7.15;2.33;;;19.00;70.90;;;;;;6226163;23;20063;-89
2023/06/28 06:26:44;;;;;;;5.07;2.17;;;19.00;72.10;;;;;;6110260;23;20085;-91
2023/06/28 06:29:31;;;;;;;3.47;2.03;;;19.20;70.20;;;;;;6107297;23;20109;-93
2023/06/28 06:32:21;;;;;;;7.47;2.28;;;19.20;70.20;;;;;;6105850;23;20028;-91
2023/06/28 06:35:11;;;;;;;7.65;1.98;;;19.20;67.70;;;;;;6106018;23;20018;-89
2023/06/28 06:37:58;;;;;;;6.80;2.35;;;19.00;68.70;;;;;;6105273;23;20088;-90
2023/06/28 06:40:48;;;;;;;5.45;2.15;;;19.00;69.80;;;;;;6105404;23;20097;-90
2023/06/28 06:43:35;;;;;;;8.13;2.08;;;19.20;71.30;;;;;;6136267;23;20429;-86
2023/06/28 06:46:24;;;;;;;7.25;2.40;;;19.40;70.30;;;;;;6225970;23;20102;-90
2023/06/28 06:49:12;;;;;;;5.65;2.03;;;19.70;70.90;;;;;;6227687;23;20024;-89
2023/06/28 06:52:00;;;;;;;5.85;2.47;;;19.80;66.40;;;;;;6228159;23;20035;-91
2023/06/28 06:54:48;;;;;;;4.65;2.40;;;20.10;66.30;;;;;;6229210;23;20032;-91
2023/06/28 06:57:38;;;;;;;7.22;2.30;;;20.20;63.90;;;;;;6232916;23;20036;-89
2023/06/28 07:00:26;;;;;;;7.90;2.72;;;20.30;64.20;;;;;;6234164;23;20039;-88
2023/06/28 07:03:17;;;;;;;5.60;1.92;;;20.50;65.00;;;;;;6232582;23;20050;-88
2023/06/28 07:06:09;;;;;;;5.68;2.25;;;20.50;62.60;;;;;;6235101;23;20035;-89
2023/06/28 07:08:57;;;;;;;6.95;2.20;;;20.50;62.40;;;;;;6254975;22;20125;-86
2023/06/28 07:11:47;;;;;;;8.02;2.13;;;20.70;63.70;;;;;;6230355;23;20024;-88
2023/06/28 07:14:34;;;;;;;9.68;2.20;;;21.10;61.50;;;;;;6228664;23;20454;-86
2023/06/28 07:17:22;;;;;;;4.45;2.03;;;21.30;61.20;;;;;;6225382;23;20099;-91
2023/06/28 07:20:13;;;;;;;5.22;2.05;;;21.30;60.00;;;;;;6228166;23;20063;-87
2023/06/28 07:23:01;;;;;;;6.07;2.00;;;21.30;60.90;;;;;;6227629;23;20435;-89
2023/06/28 07:25:49;;;;;;;5.07;1.77;;;21.50;59.20;;;;;;6248638;22;20028;-88
2023/06/28 07:28:38;;;;;;;3.47;1.80;;;21.60;58.40;;;;;;6225633;23;20082;-87
2023/06/28 07:31:26;;;;;;;7.50;1.85;;;21.70;59.00;;;;;;6225715;23;20032;-88
2023/06/28 07:34:14;;;;;;;5.68;1.70;;;21.80;57.90;;;;;;6225005;23;20330;-87
2023/06/28 07:37:05;;;;;;;3.80;1.60;;;21.70;57.20;;;;;;6226874;23;20031;-85
2023/06/28 07:39:54;;;;;;;9.00;1.90;;;21.60;57.00;;;;;;6226706;23;20020;-89
2023/06/28 07:42:43;;;;;;;10.15;3.08;;;21.60;59.80;;;;;;6205284;23;20043;-83
2023/06/28 07:45:31;;;;;;;5.05;1.63;;;21.60;57.90;;;;;;6227511;23;20031;-85
2023/06/28 07:48:22;;;;;;;6.50;2.15;;;21.60;58.50;;;;;;6225812;23;20117;-85
2023/06/28 07:51:10;;;;;;;5.55;1.65;;;21.70;58.30;;;;;;6225742;23;20366;-89
2023/06/28 07:53:57;;;;;;;6.07;1.52;;;21.90;56.80;;;;;;6227150;23;20102;-87
2023/06/28 07:56:47;;;;;;;3.13;1.50;;;21.90;56.80;;;;;;6246711;23;20028;-89
2023/06/28 07:59:36;;;;;;;9.20;2.35;;;21.90;58.50;;;;;;6225379;23;20392;-89
2023/06/28 08:02:24;;;;;;;6.93;1.77;;;22.10;58.10;;;;;;6225905;23;20126;-88
2023/06/28 08:05:11;;;;;;;6.20;1.85;;;22.20;56.00;;;;;;6226349;23;20027;-90
2023/06/28 08:07:59;;;;;;;5.07;1.55;;;22.40;56.50;;;;;;6226188;23;20039;-88
2023/06/28 08:10:46;;;;;;;11.35;1.60;;;22.60;54.30;;;;;;6225667;23;20034;-88
2023/06/28 08:13:33;;;;;;;6.53;2.22;;;22.60;55.20;;;;;;6225894;23;20099;-89
2023/06/28 08:16:28;;;;;;;3.92;1.77;;;22.40;54.30;;;;;;6227034;23;20360;-88
2023/06/28 08:19:15;;;;;;;4.93;1.83;;;22.40;55.60;;;;;;6226386;23;20091;-88
2023/06/28 08:22:03;;;;;;;6.80;1.67;;;22.30;55.80;;;;;;6226323;23;20191;-88
2023/06/28 08:24:53;;;;;;;3.38;1.52;;;22.20;56.20;;;;;;6229221;22;20028;-88
2023/06/28 08:27:40;;;;;;;3.80;1.73;;;22.10;54.60;;;;;;6227056;23;20028;-88
2023/06/28 08:30:30;;;;;;;8.18;1.88;;;21.70;56.20;;;;;;6226391;23;20318;-88
2023/06/28 08:33:19;;;;;;;9.43;2.08;;;21.70;58.00;;;;;;6227267;23;20031;-87
2023/06/28 08:36:08;;;;;;;18.90;3.13;;;21.60;58.80;;;;;;6229532;23;20059;-88
2023/06/28 08:38:55;;;;;;;8.10;2.05;;;21.40;58.30;;;;;;6227030;23;20031;-87
2023/06/28 08:41:45;;;;;;;6.88;1.88;;;21.50;59.40;;;;;;6227475;23;20082;-88
2023/06/28 08:44:33;;;;;;;6.63;1.90;;;21.80;58.10;;;;;;6225356;23;20023;-88
2023/06/28 08:47:21;;;;;;;5.65;1.88;;;21.90;57.80;;;;;;6247670;23;20032;-90
2023/06/28 08:50:10;;;;;;;6.80;1.77;;;21.90;57.40;;;;;;6225513;23;20107;-85
2023/06/28 08:53:02;;;;;;;5.78;1.90;;;22.30;55.80;;;;;;6224654;23;20670;-87
2023/06/28 08:55:49;;;;;;;9.38;1.73;;;22.80;54.00;;;;;;6225900;23;20020;-88
2023/06/28 08:58:41;;;;;;;9.13;1.92;;;23.20;54.10;;;;;;6225910;23;20099;-89
2023/06/28 09:01:29;;;;;;;5.50;1.60;;;23.60;52.00;;;;;;6227051;23;20035;-87
2023/06/28 09:04:20;;;;;;;10.10;2.17;;;23.30;51.30;;;;;;6224322;23;20424;-88
2023/06/28 09:07:13;;;;;;;3.97;1.52;;;22.90;52.50;;;;;;6248642;22;20098;-88
2023/06/28 09:10:01;;;;;;;5.45;1.65;;;22.80;53.20;;;;;;6223886;23;20024;-90
2023/06/28 09:12:49;;;;;;;5.53;1.90;;;23.30;51.90;;;;;;6226880;23;20024;-89
2023/06/28 09:15:37;;;;;;;4.65;1.98;;;23.60;50.70;;;;;;6228064;23;20493;-88
2023/06/28 09:18:25;;;;;;;5.50;1.90;;;23.10;50.90;;;;;;6226654;23;20043;-91
2023/06/28 09:21:28;;;;;;;5.97;1.98;;;23.50;51.60;;;;;;6228190;23;20027;-90
2023/06/28 09:24:15;;;;;;;3.10;1.42;;;23.80;50.10;;;;;;6225422;23;20028;-90
2023/06/28 09:27:04;;;;;;;6.28;1.80;;;23.80;50.50;;;;;;6224520;23;20162;-87
2023/06/28 09:29:59;;;;;;;6.35;1.67;;;23.60;49.30;;;;;;6227645;23;20024;-87
2023/06/28 09:32:50;;;;;;;;;;;24.40;48.30;;;;;;6226739;23;20116;-89
2023/06/28 09:35:38;;;;;;;10.00;2.00;;;25.40;46.60;;;;;;6226331;23;19920;-89
2023/06/28 09:38:26;;;;;;;6.55;1.90;;;26.20;44.30;;;;;;6225073;23;20035;-88
2023/06/28 09:41:15;;;;;;;7.50;1.73;;;26.30;43.90;;;;;;6224988;23;20024;-89
2023/06/28 09:44:05;;;;;;;6.47;1.65;;;26.60;44.80;;;;;;6223159;23;20042;-89
2023/06/28 09:46:59;;;;;;;8.07;1.90;;;26.80;42.50;;;;;;6224505;23;20036;-87
2023/06/28 09:49:59;;;;;;;7.10;1.70;;;26.00;43.00;;;;;;6222940;23;20034;-89
2023/06/28 09:52:46;;;;;;;7.30;1.92;;;26.50;43.70;;;;;;6226267;23;20060;-89
2023/06/28 09:55:36;;;;;;;6.85;2.00;;;27.10;42.10;;;;;;6225582;23;20313;-86
2023/06/28 09:58:27;;;;;;;5.93;1.65;;;27.90;40.90;;;;;;6224761;23;20024;-87
2023/06/28 10:01:18;;;;;;;6.10;1.77;;;28.40;40.20;;;;;;6226615;23;20042;-91
2023/06/28 10:04:08;;;;;;;8.20;1.90;;;29.20;40.10;;;;;;6227344;23;20028;-88
2023/06/28 10:07:00;;;;;;;10.82;1.80;;;29.20;38.20;;;;;;6228212;23;20090;-89
2023/06/28 10:09:48;;;;;;;5.60;1.77;;;28.30;39.90;;;;;;6225926;23;20043;-87
2023/06/28 10:12:37;;;;;;;10.20;2.00;;;27.60;40.20;;;;;;6226778;23;20030;-88
2023/06/28 10:15:29;;;;;;;10.52;2.30;;;27.60;41.90;;;;;;6225392;23;20076;-88
2023/06/28 10:18:17;;;;;;;9.88;1.85;;;28.20;40.10;;;;;;6225264;23;20404;-88
2023/06/28 10:21:07;;;;;;;4.57;1.63;;;29.50;40.70;;;;;;6196467;23;20024;-88
2023/06/28 10:23:57;;;;;;;;;;;30.40;38.70;;;;;;6219119;23;20039;-89
2023/06/28 10:26:45;;;;;;;7.43;2.13;;;30.00;37.50;;;;;;6195914;23;20212;-87
2023/06/28 10:29:33;;;;;;;6.57;1.88;;;29.30;37.50;;;;;;6176531;23;20107;-86
2023/06/28 10:32:20;;;;;;;4.13;1.38;;;28.90;37.50;;;;;;6197057;23;20028;-89
2023/06/28 10:35:08;;;;;;;7.22;1.73;;;28.20;39.30;;;;;;6197968;23;20036;-88
2023/06/28 10:38:00;;;;;;;8.63;2.03;;;27.20;40.70;;;;;;6201613;23;20103;-92
2023/06/28 10:40:50;;;;;;;4.63;2.00;;;26.20;42.80;;;;;;6195893;23;20809;-87
2023/06/28 10:43:38;;;;;;;6.95;2.17;;;26.10;43.50;;;;;;6195034;23;20096;-89
2023/06/28 10:46:29;;;;;;;6.43;1.80;;;26.30;43.30;;;;;;6195763;23;20048;-89
2023/06/28 10:49:17;;;;;;;6.47;1.90;;;25.90;43.50;;;;;;6195043;23;20114;-87
2023/06/28 10:52:15;;;;;;;6.97;2.08;;;26.70;42.30;;;;;;6194490;23;20020;-87
2023/06/28 10:55:11;;;;;;;6.43;1.55;;;27.50;40.50;;;;;;6196743;23;20020;-90
2023/06/28 10:58:10;;;;;;;7.50;1.80;;;26.80;42.00;;;;;;6198528;23;20031;-91
2023/06/28 11:00:58;;;;;;;5.32;2.00;;;25.60;43.90;;;;;;6195738;23;20084;-87
2023/06/28 11:03:46;;;;;;;5.40;1.80;;;25.00;45.10;;;;;;6195919;23;20029;-89
2023/06/28 11:06:41;;;;;;;3.28;1.48;;;24.60;46.10;;;;;;6194091;23;20095;-87
2023/06/28 11:09:30;;;;;;;6.47;1.73;;;25.60;45.50;;;;;;6198816;23;20304;-89
2023/06/28 11:12:19;;;;;;;6.47;1.88;;;27.80;43.10;;;;;;6204724;23;20025;-90
2023/06/28 11:15:11;;;;;;;5.20;1.70;;;29.10;37.80;;;;;;6208454;23;20040;-86
2023/06/28 11:18:12;;;;;;;5.25;1.75;;;28.20;38.60;;;;;;6233081;23;20375;-90
2023/06/28 11:21:03;;;;;;;7.18;1.65;;;27.80;39.50;;;;;;6216852;23;20037;-86
2023/06/28 11:23:54;;;;;;;5.30;1.38;;;27.10;40.60;;;;;;6220330;23;20023;-89
2023/06/28 11:26:42;;;;;;;4.72;1.80;;;27.20;43.40;;;;;;6214297;23;20044;-88
2023/06/28 11:29:33;;;;;;;4.60;1.42;;;28.60;39.40;;;;;;6206716;23;20076;-87
2023/06/28 11:32:32;;;;;;;2.97;1.50;;;29.30;35.90;;;;;;6212774;23;20404;-88
2023/06/28 11:35:22;;;;;;;6.75;1.90;;;27.90;39.80;;;;;;6211077;23;20344;-86
2023/06/28 11:38:13;;;;;;;4.53;1.73;;;27.10;41.30;;;;;;6202870;23;20381;-89
2023/06/28 11:41:01;;;;;;;6.15;2.10;;;26.60;41.40;;;;;;6199399;23;20020;-90
2023/06/28 11:43:49;;;;;;;5.25;1.70;;;26.70;44.10;;;;;;6202563;23;20109;-90
2023/06/28 11:46:40;;;;;;;4.40;1.48;;;28.10;41.40;;;;;;6198405;23;20438;-87
2023/06/28 11:49:30;;;;;;;5.95;2.22;;;28.40;38.70;;;;;;6216343;23;20040;-88
2023/06/28 11:52:18;;;;;;;5.88;1.73;;;27.40;39.30;;;;;;6199138;23;20047;-89
2023/06/28 11:55:06;;;;;;;6.13;1.73;;;26.60;41.20;;;;;;6196889;23;20119;-88
2023/06/28 11:57:53;;;;;;;8.45;1.75;;;27.20;41.40;;;;;;6197843;23;20112;-87
2023/06/28 12:00:44;;;;;;;5.53;1.85;;;28.00;41.60;;;;;;6197729;23;20025;-88
2023/06/28 12:03:40;;;;;;;2.63;1.35;;;30.20;36.30;;;;;;6220447;23;20072;-89
2023/06/28 12:06:29;;;;;;;4.00;1.60;;;31.50;33.50;;;;;;6199651;23;20029;-88
2023/06/28 12:09:26;;;;;;;6.80;2.03;;;29.70;34.70;;;;;;6220896;23;20060;-88
2023/06/28 12:12:14;;;;;;;3.20;1.60;;;28.10;38.40;;;;;;6201218;23;20029;-88
2023/06/28 12:15:04;;;;;;;4.28;1.50;;;27.90;38.70;;;;;;6197495;23;20412;-88
2023/06/28 12:17:55;;;;;;;8.98;1.60;;;26.90;40.90;;;;;;6196309;23;20024;-89
2023/06/28 12:20:43;;;;;;;4.70;1.75;;;26.70;41.60;;;;;;6216707;23;20104;-89
2023/06/28 12:23:30;;;;;;;6.05;1.50;;;26.00;42.40;;;;;;6216855;23;20040;-90
2023/06/28 12:26:18;;;;;;;7.43;2.10;;;25.40;43.70;;;;;;6215280;23;20118;-91
2023/06/28 12:29:11;;;;;;;5.70;1.60;;;25.00;43.90;;;;;;6217389;23;20073;-89
2023/06/28 12:32:08;;;;;;;7.32;1.90;;;24.80;45.00;;;;;;6217642;23;20028;-88
2023/06/28 12:34:55;;;;;;;8.63;1.60;;;25.00;43.80;;;;;;6216276;23;20312;-90
2023/06/28 12:37:51;;;;;;;3.88;1.63;;;25.30;44.90;;;;;;6219749;23;20052;-90
2023/06/28 12:40:39;;;;;;;5.05;1.80;;;25.80;43.20;;;;;;6217377;23;20105;-88
2023/06/28 12:43:28;;;;;;;4.90;1.63;;;26.00;42.20;;;;;;6217157;23;20413;-90
2023/06/28 12:46:16;;;;;;;5.00;1.42;;;27.20;41.50;;;;;;6196987;23;20028;-88
2023/06/28 12:49:04;;;;;;;7.93;1.70;;;29.00;40.40;;;;;;6218070;23;20033;-89
2023/06/28 12:51:52;;;;;;;3.92;1.60;;;30.90;38.00;;;;;;6218125;23;20412;-91
2023/06/28 12:54:39;;;;;;;4.70;1.73;;;32.20;33.90;;;;;;6215932;23;20028;-88
2023/06/28 12:57:27;;;;;;;5.63;1.50;;;32.40;31.10;;;;;;6216784;23;20035;-90
2023/06/28 13:00:15;;;;;;;2.75;1.10;;;32.80;31.70;;;;;;6215422;23;20039;-89
2023/06/28 13:03:10;;;;;;;3.58;1.42;;;31.60;31.30;;;;;;6217804;23;20025;-89
2023/06/28 13:05:59;;;;;;;3.63;1.38;;;30.70;33.80;;;;;;6219330;23;20671;-90
2023/06/28 13:08:52;;;;;;;5.32;1.10;;;31.80;33.30;;;;;;6217726;23;20027;-90
2023/06/28 13:11:40;;;;;;;5.57;1.60;;;32.40;30.70;;;;;;6216751;23;20034;-89
2023/06/28 13:14:27;;;;;;;5.20;1.60;;;30.90;32.60;;;;;;6216488;23;20020;-89
2023/06/28 13:17:15;;;;;;;5.60;1.38;;;28.90;35.70;;;;;;6218931;23;20025;-90
2023/06/28 13:20:04;;;;;;;5.80;1.50;;;26.60;40.00;;;;;;6217618;23;20028;-88
2023/06/28 13:22:55;;;;;;;8.27;1.55;;;25.90;41.60;;;;;;6218583;23;20024;-88
2023/06/28 13:25:47;;;;;;;4.97;1.75;;;27.30;40.50;;;;;;6220163;23;20021;-87
2023/06/28 13:28:37;;;;;;;5.25;1.75;;;28.90;37.60;;;;;;6218959;23;20024;-92
2023/06/28 13:31:25;;;;;;;11.73;1.98;;;30.00;36.20;;;;;;6197501;23;20039;-89
2023/06/28 13:34:26;;;;;;;4.85;1.77;;;29.60;35.00;;;;;;6220704;23;20028;-87
2023/06/28 13:37:14;;;;;;;8.45;1.50;;;29.20;35.40;;;;;;6214572;23;20310;-88
2023/06/28 13:40:15;;;;;;;2.80;1.60;;;28.70;36.60;;;;;;6217265;23;20542;-89
2023/06/28 13:43:04;;;;;;;6.70;1.55;;;29.00;37.20;;;;;;6217167;23;20024;-89
2023/06/28 13:45:52;;;;;;;4.88;1.70;;;30.50;36.10;;;;;;6218871;23;20032;-89
2023/06/28 13:48:41;;;;;;;4.38;1.40;;;31.90;32.30;;;;;;6218421;23;20028;-89
2023/06/28 13:51:32;;;;;;;3.72;1.20;;;32.10;32.00;;;;;;6216555;23;20399;-89
2023/06/28 13:54:19;;;;;;;4.28;1.48;;;32.90;31.00;;;;;;6217067;23;20103;-89
2023/06/28 13:57:07;;;;;;;2.47;1.48;;;33.20;30.00;;;;;;6216617;23;20028;-90
2023/06/28 13:59:55;;;;;;;1.42;1.00;;;33.50;30.60;;;;;;6221249;23;20029;-88
2023/06/28 14:02:46;;;;;;;4.07;1.20;;;34.50;29.50;;;;;;6217780;23;20055;-87
2023/06/28 14:05:34;;;;;;;4.72;1.60;;;35.10;29.40;;;;;;6214522;23;20028;-88
2023/06/28 14:08:24;;;;;;;6.18;1.42;;;35.90;28.20;;;;;;6197233;23;20025;-88
2023/06/28 14:11:12;;;;;;;4.05;1.60;;;36.20;27.20;;;;;;6213701;23;20301;-88
2023/06/28 14:14:00;;;;;;;4.00;1.40;;;36.50;27.00;;;;;;6218526;23;20029;-87
2023/06/28 14:16:48;;;;;;;3.20;1.30;;;36.80;25.70;;;;;;6218773;22;20424;-88
2023/06/28 14:19:38;;;;;;;3.92;1.15;;;37.30;26.90;;;;;;6216241;23;20034;-89
2023/06/28 14:22:28;;;;;;;5.65;1.35;;;37.60;24.80;;;;;;6214522;23;20111;-90
2023/06/28 14:25:16;;;;;;;4.43;1.33;;;37.80;24.30;;;;;;6217005;23;20028;-88
2023/06/28 14:28:05;;;;;;;4.50;1.33;;;37.60;25.50;;;;;;6214519;23;20171;-88
2023/06/28 14:30:53;;;;;;;5.20;1.70;;;37.30;25.60;;;;;;6214240;23;20021;-90
2023/06/28 14:33:47;;;;;;;4.90;1.40;;;37.20;24.70;;;;;;6217153;23;20029;-88
2023/06/28 14:36:55;;;;;;;4.80;1.48;;;37.00;25.20;;;;;;6111297;23;20053;-87
2023/06/28 14:39:49;;;;;;;4.20;1.50;;;36.70;25.50;;;;;;6108314;23;20871;-88